createdAt,value
2017-02-28T00:00:28.071Z,68.58
2017-02-28T00:01:28.048Z,68.1
2017-02-28T00:02:28.031Z,67.53
2017-02-28T00:03:28.023Z,68.58
2017-02-28T00:04:28.010Z,67.91
2017-02-28T00:05:27.999Z,67.63
2017-02-28T00:06:27.985Z,67.53
2017-02-28T00:07:27.973Z,66.87
2017-02-28T00:08:27.963Z,66.49
2017-02-28T00:09:27.951Z,66.61
2017-02-28T00:10:27.945Z,66.2
2017-02-28T00:11:27.937Z,67
2017-02-28T00:12:27.922Z,67.63
2017-02-28T00:13:28.377Z,67.15
2017-02-28T00:14:27.895Z,66.77
2017-02-28T00:15:27.891Z,65.86
2017-02-28T00:16:28.228Z,66.33
2017-02-28T00:17:27.870Z,65.95
2017-02-28T00:18:27.851Z,66.42
2017-02-28T00:19:28.128Z,66.9
2017-02-28T00:20:27.828Z,65.86
2017-02-28T00:21:27.525Z,66.42
2017-02-28T00:22:27.426Z,66.33
2017-02-28T00:23:27.795Z,65.57
2017-02-28T00:24:27.906Z,66.52
2017-02-28T00:25:27.773Z,66.05
2017-02-28T00:26:27.760Z,65.19
2017-02-28T00:27:28.129Z,65.38
2017-02-28T00:28:27.748Z,64.9
2017-02-28T00:29:27.732Z,65.19
2017-02-28T00:30:28.085Z,65.76
2017-02-28T00:31:27.725Z,65.67
2017-02-28T00:32:27.695Z,65.76
2017-02-28T00:33:28.359Z,65.28
2017-02-28T00:34:27.674Z,65.67
2017-02-28T00:35:27.659Z,65.19
2017-02-28T00:36:28.116Z,65.09
2017-02-28T00:37:27.643Z,64.9
2017-02-28T00:38:27.633Z,65.38
2017-02-28T00:39:28.135Z,66.52
2017-02-28T00:40:27.611Z,65.57
2017-02-28T00:41:27.598Z,66.61
2017-02-28T00:42:27.584Z,66.52
2017-02-28T00:43:27.175Z,67.06
2017-02-28T00:44:27.569Z,67.82
2017-02-28T00:45:27.554Z,67.06
2017-02-28T00:46:27.552Z,67.82
2017-02-28T00:47:27.542Z,68.39
2017-02-28T00:48:27.534Z,68.86
2017-02-28T00:49:27.507Z,69.43
2017-02-28T00:50:27.495Z,69.05
2017-02-28T00:51:27.487Z,69.53
2017-02-28T00:52:27.475Z,70
2017-02-28T00:53:27.464Z,70
2017-02-28T00:54:27.453Z,70.29
2017-02-28T00:55:27.453Z,70.95
2017-02-28T00:56:27.446Z,70.95
2017-02-28T00:57:27.416Z,71.71
2017-02-28T00:58:27.415Z,72.09
2017-02-28T00:59:27.396Z,72.28
2017-02-28T01:00:27.397Z,73.33
2017-02-28T01:01:27.379Z,73.99
2017-02-28T01:02:27.363Z,73.61
2017-02-28T01:03:27.349Z,73.99
2017-02-28T01:04:26.942Z,74.66
2017-02-28T01:05:27.376Z,76.08
2017-02-28T01:06:27.318Z,76.46
2017-02-28T01:07:27.307Z,76.08
2017-02-28T01:08:27.290Z,77.89
2017-02-28T01:09:27.282Z,79.12
2017-02-28T01:10:26.874Z,81.87
2017-02-28T01:11:27.265Z,84.82
2017-02-28T01:12:27.354Z,88.48
2017-02-28T01:13:27.250Z,92.56
2017-02-28T01:14:27.734Z,99.26
2017-02-28T01:15:27.218Z,99.99
2017-02-28T01:16:27.207Z,99.99
2017-02-28T01:17:27.269Z,99.99
2017-02-28T01:18:26.794Z,99.99
2017-02-28T01:19:27.172Z,99.99
2017-02-28T01:20:27.167Z,99.99
2017-02-28T01:21:26.754Z,99.99
2017-02-28T01:22:27.145Z,99.99
2017-02-28T01:23:26.953Z,99.99
2017-02-28T01:24:27.117Z,99.99
2017-02-28T01:25:27.103Z,99.99
2017-02-28T01:26:27.601Z,99.99
2017-02-28T01:27:27.080Z,99.99
2017-02-28T01:28:27.077Z,99.99
2017-02-28T01:29:27.013Z,99.99
2017-02-28T01:30:27.053Z,99.99
2017-02-28T01:31:27.040Z,99.99
2017-02-28T01:32:26.782Z,99.99
2017-02-28T01:33:27.017Z,99.99
2017-02-28T01:34:27.000Z,99.99
2017-02-28T01:35:27.067Z,99.99
2017-02-28T01:36:26.993Z,99.99
2017-02-28T01:37:26.972Z,99.99
2017-02-28T01:38:27.651Z,99.99
2017-02-28T01:39:26.943Z,99.99
2017-02-28T01:40:26.926Z,99.99
2017-02-28T01:41:27.484Z,99.99
2017-02-28T01:42:26.909Z,99.99
2017-02-28T01:43:26.904Z,99.99
2017-02-28T01:44:27.412Z,99.99
2017-02-28T01:45:26.881Z,99.99
2017-02-28T01:46:26.463Z,99.99
2017-02-28T01:47:26.728Z,99.99
2017-02-28T01:48:26.446Z,99.99
2017-02-28T01:49:26.855Z,99.99
2017-02-28T01:50:26.821Z,99.99
2017-02-28T01:51:26.823Z,99.99
2017-02-28T01:52:26.796Z,99.99
2017-02-28T01:53:26.794Z,99.99
2017-02-28T01:54:26.776Z,99.99
2017-02-28T01:55:26.987Z,99.99
2017-02-28T01:56:26.350Z,99.99
2017-02-28T01:57:26.737Z,99.99
2017-02-28T01:58:26.727Z,99.99
2017-02-28T01:59:26.421Z,99.99
2017-02-28T02:00:26.719Z,99.99
2017-02-28T02:01:26.692Z,99.99
2017-02-28T02:02:26.692Z,99.99
2017-02-28T02:03:27.327Z,99.99
2017-02-28T02:04:26.658Z,99.99
2017-02-28T02:05:26.642Z,99.99
2017-02-28T02:06:26.612Z,99.99
2017-02-28T02:07:26.623Z,99.99
2017-02-28T02:08:26.212Z,99.99
2017-02-28T02:09:26.596Z,99.99
2017-02-28T02:10:26.278Z,99.99
2017-02-28T02:11:26.571Z,99.99
2017-02-28T02:12:26.567Z,99.99
2017-02-28T02:13:27.107Z,99.99
2017-02-28T02:14:26.546Z,99.99
2017-02-28T02:15:26.528Z,99.99
2017-02-28T02:16:26.674Z,99.99
2017-02-28T02:17:26.500Z,99.99
2017-02-28T02:18:26.494Z,99.99
2017-02-28T02:19:26.506Z,99.99
2017-02-28T02:20:26.464Z,99.99
2017-02-28T02:21:26.457Z,99.99
2017-02-28T02:22:26.972Z,99.99
2017-02-28T02:23:26.434Z,99.99
2017-02-28T02:24:26.435Z,99.99
2017-02-28T02:25:26.374Z,99.99
2017-02-28T02:26:26.397Z,99.99
2017-02-28T02:27:27.112Z,99.99
2017-02-28T02:28:26.367Z,99.99
2017-02-28T02:29:26.373Z,99.99
2017-02-28T02:30:26.691Z,99.99
2017-02-28T02:31:26.346Z,99.99
2017-02-28T02:32:26.513Z,99.99
2017-02-28T02:33:26.451Z,99.99
2017-02-28T02:34:26.302Z,99.99
2017-02-28T02:35:26.285Z,99.99
2017-02-28T02:36:26.402Z,99.99
2017-02-28T02:37:26.268Z,99.99
2017-02-28T02:38:26.250Z,99.99
2017-02-28T02:39:26.240Z,99.99
2017-02-28T02:40:26.226Z,99.99
2017-02-28T02:41:26.213Z,99.99
2017-02-28T02:42:26.203Z,99.99
2017-02-28T02:43:26.198Z,99.99
2017-02-28T02:44:26.180Z,99.99
2017-02-28T02:45:26.167Z,99.99
2017-02-28T02:46:26.155Z,99.99
2017-02-28T02:47:26.144Z,99.99
2017-02-28T02:48:26.135Z,99.99
2017-02-28T02:49:26.135Z,99.99
2017-02-28T02:50:26.110Z,99.99
2017-02-28T02:51:26.094Z,99.99
2017-02-28T02:52:26.084Z,99.99
2017-02-28T02:53:26.080Z,99.99
2017-02-28T02:54:26.118Z,99.99
2017-02-28T02:55:26.044Z,99.99
2017-02-28T02:56:26.042Z,99.99
2017-02-28T02:57:26.040Z,99.99
2017-02-28T02:58:26.035Z,99.99
2017-02-28T02:59:26.003Z,99.99
2017-02-28T03:00:25.989Z,99.99
2017-02-28T03:01:25.580Z,99.99
2017-02-28T03:02:25.966Z,99.99
2017-02-28T03:03:25.698Z,99.99
2017-02-28T03:04:25.957Z,99.99
2017-02-28T03:05:25.929Z,99.99
2017-02-28T03:06:25.617Z,99.99
2017-02-28T03:07:25.916Z,99.99
2017-02-28T03:08:25.895Z,99.99
2017-02-28T03:09:26.387Z,99.99
2017-02-28T03:10:25.872Z,99.99
2017-02-28T03:11:25.859Z,99.99
2017-02-28T03:12:25.512Z,99.99
2017-02-28T03:13:25.836Z,99.99
2017-02-28T03:14:25.831Z,99.99
2017-02-28T03:15:25.813Z,99.99
2017-02-28T03:16:25.401Z,99.99
2017-02-28T03:17:25.788Z,99.99
2017-02-28T03:18:25.796Z,99.99
2017-02-28T03:19:25.764Z,99.99
2017-02-28T03:20:25.750Z,99.99
2017-02-28T03:21:25.744Z,99.99
2017-02-28T03:22:25.332Z,99.99
2017-02-28T03:23:25.721Z,99.99
2017-02-28T03:24:25.706Z,99.99
2017-02-28T03:25:25.695Z,99.99
2017-02-28T03:26:25.679Z,99.99
2017-02-28T03:27:25.673Z,99.99
2017-02-28T03:28:25.662Z,99.99
2017-02-28T03:29:25.248Z,99.99
2017-02-28T03:30:25.643Z,99.99
2017-02-28T03:31:25.623Z,99.99
2017-02-28T03:32:25.615Z,99.99
2017-02-28T03:33:25.604Z,99.99
2017-02-28T03:34:25.597Z,99.99
2017-02-28T03:35:25.181Z,99.99
2017-02-28T03:36:25.569Z,99.99
2017-02-28T03:37:25.556Z,99.99
2017-02-28T03:38:25.549Z,99.99
2017-02-28T03:39:25.535Z,99.99
2017-02-28T03:40:25.517Z,99.99
2017-02-28T03:41:25.509Z,99.99
2017-02-28T03:42:25.098Z,99.99
2017-02-28T03:43:25.485Z,99.99
2017-02-28T03:44:25.472Z,99.99
2017-02-28T03:45:25.457Z,99.99
2017-02-28T03:46:25.446Z,99.99
2017-02-28T03:47:25.436Z,99.99
2017-02-28T03:48:25.426Z,99.99
2017-02-28T03:49:25.017Z,99.99
2017-02-28T03:50:25.399Z,99.99
2017-02-28T03:51:25.390Z,99.99
2017-02-28T03:52:24.980Z,99.99
2017-02-28T03:53:24.969Z,99.99
2017-02-28T03:54:25.358Z,99.99
2017-02-28T03:55:25.341Z,99.99
2017-02-28T03:56:25.325Z,99.99
2017-02-28T03:57:25.311Z,99.99
2017-02-28T03:58:25.304Z,99.99
2017-02-28T03:59:25.289Z,99.99
2017-02-28T04:00:25.283Z,99.99
2017-02-28T04:01:25.270Z,99.99
2017-02-28T04:02:25.256Z,99.99
2017-02-28T04:03:25.267Z,99.99
2017-02-28T04:04:25.233Z,99.99
2017-02-28T04:05:25.221Z,99.99
2017-02-28T04:06:25.210Z,99.99
2017-02-28T04:07:25.199Z,99.99
2017-02-28T04:08:24.789Z,99.99
2017-02-28T04:09:25.175Z,99.99
2017-02-28T04:10:25.160Z,99.99
2017-02-28T04:11:25.151Z,99.99
2017-02-28T04:12:25.138Z,99.99
2017-02-28T04:13:25.136Z,99.99
2017-02-28T04:14:25.116Z,99.99
2017-02-28T04:15:25.104Z,99.99
2017-02-28T04:16:25.090Z,99.99
2017-02-28T04:17:25.081Z,99.99
2017-02-28T04:18:25.074Z,99.99
2017-02-28T04:19:25.055Z,99.99
2017-02-28T04:20:25.054Z,99.99
2017-02-28T04:21:25.027Z,99.99
2017-02-28T04:22:25.019Z,99.99
2017-02-28T04:23:24.608Z,99.99
2017-02-28T04:24:24.994Z,99.99
2017-02-28T04:25:24.980Z,99.99
2017-02-28T04:26:24.967Z,99.99
2017-02-28T04:27:24.958Z,99.99
2017-02-28T04:28:24.951Z,99.99
2017-02-28T04:29:24.532Z,99.99
2017-02-28T04:30:24.923Z,99.99
2017-02-28T04:31:24.914Z,99.99
2017-02-28T04:32:24.898Z,99.44
2017-02-28T04:33:24.879Z,97.35
2017-02-28T04:34:24.865Z,96.31
2017-02-28T04:35:24.455Z,93.37
2017-02-28T04:36:24.840Z,91.47
2017-02-28T04:37:24.831Z,86.45
2017-02-28T04:38:24.832Z,85.69
2017-02-28T04:39:24.807Z,86.22
2017-02-28T04:40:24.785Z,85.08
2017-02-28T04:41:24.778Z,83.18
2017-02-28T04:42:24.758Z,82.33
2017-02-28T04:43:24.747Z,81.38
2017-02-28T04:44:24.336Z,77.59
2017-02-28T04:45:24.730Z,77.59
2017-02-28T04:46:24.706Z,74.95
2017-02-28T04:47:24.692Z,74.28
2017-02-28T04:48:24.682Z,72.48
2017-02-28T04:49:24.662Z,69.92
2017-02-28T04:50:24.255Z,67.46
2017-02-28T04:51:24.645Z,67.74
2017-02-28T04:52:24.627Z,67.46
2017-02-28T04:53:24.612Z,66.8
2017-02-28T04:54:24.602Z,65.19
2017-02-28T04:55:24.183Z,64.9
2017-02-28T04:56:24.569Z,64.23
2017-02-28T04:57:24.562Z,62.82
2017-02-28T04:58:24.542Z,61.4
2017-02-28T04:59:24.536Z,61.58
2017-02-28T05:00:24.515Z,60.35
2017-02-28T05:01:24.101Z,59.69
2017-02-28T05:02:24.500Z,60.35
2017-02-28T05:03:24.484Z,60.16
2017-02-28T05:04:24.459Z,60.25
2017-02-28T05:05:24.453Z,60.25
2017-02-28T05:06:24.431Z,59.41
2017-02-28T05:07:24.430Z,59.41
2017-02-28T05:08:24.404Z,61.87
2017-02-28T05:09:24.391Z,62.15
2017-02-28T05:10:24.381Z,63.95
2017-02-28T05:11:24.361Z,64.42
2017-02-28T05:12:24.348Z,66.03
2017-02-28T05:13:24.335Z,65.66
2017-02-28T05:14:24.321Z,66.19
2017-02-28T05:15:23.910Z,65.63
2017-02-28T05:16:24.294Z,64.68
2017-02-28T05:17:24.277Z,62.69
2017-02-28T05:18:24.275Z,62.97
2017-02-28T05:19:23.853Z,62.5
2017-02-28T05:20:23.849Z,61.74
2017-02-28T05:21:24.224Z,60.89
2017-02-28T05:22:24.203Z,59.19
2017-02-28T05:23:24.198Z,58.24
2017-02-28T05:24:24.189Z,58.71
2017-02-28T05:25:24.174Z,58.71
2017-02-28T05:26:24.171Z,59.19
2017-02-28T05:27:24.151Z,60.22
2017-02-28T05:28:24.123Z,58.71
2017-02-28T05:29:24.110Z,59.56
2017-02-28T05:30:24.093Z,64.77
2017-02-28T05:31:24.082Z,63.82
2017-02-28T05:32:24.063Z,62.31
2017-02-28T05:33:24.051Z,62.4
2017-02-28T05:34:24.045Z,61.93
2017-02-28T05:35:24.038Z,62.02
2017-02-28T05:36:24.006Z,60.32
2017-02-28T05:37:23.993Z,61.36
2017-02-28T05:38:23.985Z,60.8
2017-02-28T05:39:23.961Z,61.46
2017-02-28T05:40:23.961Z,61.83
2017-02-28T05:41:23.938Z,60.22
2017-02-28T05:42:23.522Z,60.99
2017-02-28T05:43:23.904Z,61.65
2017-02-28T05:44:23.892Z,60.99
2017-02-28T05:45:23.875Z,63.54
2017-02-28T05:46:23.863Z,62.5
2017-02-28T05:47:24.285Z,63.07
2017-02-28T05:48:24.469Z,64.01
2017-02-28T05:49:24.170Z,62.69
2017-02-28T05:50:23.958Z,62.12
2017-02-28T05:51:24.054Z,60.51
2017-02-28T05:52:23.785Z,60.41
2017-02-28T05:53:23.760Z,59.28
2017-02-28T05:54:23.754Z,59.19
2017-02-28T05:55:23.742Z,59.47
2017-02-28T05:56:23.723Z,61.99
2017-02-28T05:57:23.718Z,62.56
2017-02-28T05:58:23.688Z,59.91
2017-02-28T05:59:23.694Z,58.21
2017-02-28T06:00:23.654Z,57.17
2017-02-28T06:01:23.245Z,60.96
2017-02-28T06:02:23.627Z,61.24
2017-02-28T06:03:23.636Z,61.15
2017-02-28T06:04:23.201Z,60.77
2017-02-28T06:05:23.585Z,59.34
2017-02-28T06:06:23.568Z,59.63
2017-02-28T06:07:23.555Z,59.81
2017-02-28T06:08:23.535Z,59.06
2017-02-28T06:09:23.525Z,56.51
2017-02-28T06:10:23.506Z,56.32
2017-02-28T06:11:23.494Z,55.46
2017-02-28T06:12:23.481Z,55.37
2017-02-28T06:13:23.464Z,53.95
2017-02-28T06:14:23.455Z,54.23
2017-02-28T06:15:23.435Z,53.66
2017-02-28T06:16:23.428Z,53.09
2017-02-28T06:17:23.405Z,53.28
2017-02-28T06:18:23.416Z,55.75
2017-02-28T06:19:23.379Z,55.75
2017-02-28T06:20:23.360Z,56.6
2017-02-28T06:21:22.961Z,56.6
2017-02-28T06:22:23.330Z,55.46
2017-02-28T06:23:23.582Z,54.61
2017-02-28T06:24:23.330Z,55.37
2017-02-28T06:25:23.289Z,54.14
2017-02-28T06:26:23.273Z,55.18
2017-02-28T06:27:23.268Z,55.37
2017-02-28T06:28:23.252Z,55.56
2017-02-28T06:29:23.234Z,53.85
2017-02-28T06:30:23.214Z,55.18
2017-02-28T06:31:23.195Z,59.25
2017-02-28T06:32:23.179Z,58.78
2017-02-28T06:33:23.169Z,59.06
2017-02-28T06:34:22.753Z,58.02
2017-02-28T06:35:22.743Z,57.73
2017-02-28T06:36:23.134Z,58.4
2017-02-28T06:37:23.117Z,57.26
2017-02-28T06:38:23.092Z,58.78
2017-02-28T06:39:23.075Z,59.25
2017-02-28T06:40:23.055Z,60.48
2017-02-28T06:41:23.057Z,58.78
2017-02-28T06:42:23.033Z,57.73
2017-02-28T06:43:23.014Z,57.73
2017-02-28T06:44:22.997Z,57.54
2017-02-28T06:45:22.985Z,57.07
2017-02-28T06:46:22.975Z,56.7
2017-02-28T06:47:22.559Z,55.46
2017-02-28T06:48:22.941Z,58.59
2017-02-28T06:49:22.925Z,57.35
2017-02-28T06:50:22.922Z,58.3
2017-02-28T06:51:22.495Z,63.51
2017-02-28T06:52:22.879Z,62.85
2017-02-28T06:53:22.865Z,63.6
2017-02-28T06:54:22.856Z,63.23
2017-02-28T06:55:22.437Z,62.94
2017-02-28T06:56:22.821Z,63.89
2017-02-28T06:57:22.813Z,67.49
2017-02-28T06:58:22.787Z,68.05
2017-02-28T06:59:22.773Z,67.49
2017-02-28T07:00:22.769Z,65.88
2017-02-28T07:01:22.753Z,65.4
2017-02-28T07:02:22.733Z,65.21
2017-02-28T07:03:22.725Z,69.95
2017-02-28T07:04:22.711Z,76.14
2017-02-28T07:05:22.696Z,73.68
2017-02-28T07:06:22.670Z,71.27
2017-02-28T07:07:22.670Z,73.01
2017-02-28T07:08:22.639Z,79.17
2017-02-28T07:09:22.625Z,79.55
2017-02-28T07:10:22.623Z,79.32
2017-02-28T07:11:22.604Z,79.22
2017-02-28T07:12:22.591Z,77.84
2017-02-28T07:13:22.570Z,77.18
2017-02-28T07:14:22.553Z,79.32
2017-02-28T07:15:22.547Z,80.49
2017-02-28T07:16:22.522Z,77.61
2017-02-28T07:17:22.503Z,76.8
2017-02-28T07:18:22.493Z,83.33
2017-02-28T07:19:22.081Z,82.29
2017-02-28T07:20:22.801Z,79.07
2017-02-28T07:21:22.461Z,80.49
2017-02-28T07:22:22.432Z,79.45
2017-02-28T07:23:22.418Z,77.08
2017-02-28T07:24:22.402Z,75.95
2017-02-28T07:25:22.396Z,76.61
2017-02-28T07:26:22.372Z,79.6
2017-02-28T07:27:22.359Z,77.94
2017-02-28T07:28:22.342Z,80.87
2017-02-28T07:29:22.328Z,84.19
2017-02-28T07:30:21.915Z,85.7
2017-02-28T07:31:22.298Z,85.13
2017-02-28T07:32:21.887Z,81.63
2017-02-28T07:33:22.278Z,83.81
2017-02-28T07:34:22.269Z,88.07
2017-02-28T07:35:22.238Z,89.58
2017-02-28T07:36:22.222Z,87.5
2017-02-28T07:37:22.211Z,87.12
2017-02-28T07:38:22.201Z,83.33
2017-02-28T07:39:21.787Z,83.81
2017-02-28T07:40:22.165Z,83.43
2017-02-28T07:41:22.154Z,86.18
2017-02-28T07:42:22.146Z,84.38
2017-02-28T07:43:22.122Z,82.39
2017-02-28T07:44:22.106Z,82.86
2017-02-28T07:45:21.701Z,84.66
2017-02-28T07:46:22.076Z,83.71
2017-02-28T07:47:21.663Z,82.29
2017-02-28T07:48:22.046Z,82.57
2017-02-28T07:49:21.634Z,85.61
2017-02-28T07:50:21.633Z,85.32
2017-02-28T07:51:22.011Z,84.09
2017-02-28T07:52:22.003Z,85.42
2017-02-28T07:53:21.971Z,85.7
2017-02-28T07:54:21.559Z,84.47
2017-02-28T07:55:21.945Z,87.31
2017-02-28T07:56:21.533Z,87.31
2017-02-28T07:57:21.515Z,87.4
2017-02-28T07:58:21.502Z,86.08
2017-02-28T07:59:21.493Z,86.18
2017-02-28T08:00:21.490Z,87.78
2017-02-28T08:01:21.468Z,88.82
2017-02-28T08:02:21.443Z,89.3
2017-02-28T08:03:21.842Z,88.64
2017-02-28T08:04:21.819Z,93.46
2017-02-28T08:05:21.798Z,94.23
2017-02-28T08:06:21.783Z,95.45
2017-02-28T08:07:21.376Z,94.23
2017-02-28T08:08:21.355Z,92.71
2017-02-28T08:09:21.751Z,95.26
2017-02-28T08:10:21.736Z,96.31
2017-02-28T08:11:21.713Z,93.65
2017-02-28T08:12:21.697Z,98.86
2017-02-28T08:13:21.682Z,97.25
2017-02-28T08:14:21.670Z,96.78
2017-02-28T08:15:21.655Z,97.44
2017-02-28T08:16:21.638Z,97.44
2017-02-28T08:17:21.630Z,97.44
2017-02-28T08:18:21.620Z,96.97
2017-02-28T08:19:21.596Z,94.7
2017-02-28T08:20:21.587Z,93.18
2017-02-28T08:21:21.569Z,93.46
2017-02-28T08:22:21.158Z,95.36
2017-02-28T08:23:21.540Z,94.98
2017-02-28T08:24:21.530Z,92.99
2017-02-28T08:25:21.519Z,92.33
2017-02-28T08:26:21.507Z,91.48
2017-02-28T08:27:21.483Z,92.05
2017-02-28T08:28:21.469Z,95.93
2017-02-28T08:29:21.456Z,95.64
2017-02-28T08:30:21.439Z,96.02
2017-02-28T08:31:21.426Z,96.21
2017-02-28T08:32:21.410Z,95.36
2017-02-28T08:33:21.397Z,99.52
2017-02-28T08:34:21.389Z,97.25
2017-02-28T08:35:21.366Z,95.55
2017-02-28T08:36:21.382Z,94.98
2017-02-28T08:37:21.338Z,95.93
2017-02-28T08:38:21.325Z,95.45
2017-02-28T08:39:21.317Z,94.6
2017-02-28T08:40:20.905Z,96.59
2017-02-28T08:41:21.281Z,97.44
2017-02-28T08:42:21.269Z,96.31
2017-02-28T08:43:20.855Z,93.65
2017-02-28T08:44:21.240Z,96.69
2017-02-28T08:45:21.223Z,94.51
2017-02-28T08:46:21.212Z,96.21
2017-02-28T08:47:21.196Z,96.69
2017-02-28T08:48:21.236Z,96.31
2017-02-28T08:49:21.168Z,94.89
2017-02-28T08:50:21.152Z,95.26
2017-02-28T08:51:21.144Z,92.99
2017-02-28T08:52:21.128Z,94.42
2017-02-28T08:53:21.115Z,96.21
2017-02-28T08:54:21.094Z,95.83
2017-02-28T08:55:21.091Z,96.4
2017-02-28T08:56:21.086Z,96.4
2017-02-28T08:57:21.051Z,95.17
2017-02-28T08:58:21.037Z,93.46
2017-02-28T08:59:21.022Z,94.6
2017-02-28T09:00:21.008Z,96.78
2017-02-28T09:01:20.597Z,94.42
2017-02-28T09:02:20.981Z,93.46
2017-02-28T09:03:20.966Z,93.56
2017-02-28T09:04:20.949Z,92.52
2017-02-28T09:05:20.944Z,92.61
2017-02-28T09:06:20.935Z,93.94
2017-02-28T09:07:20.533Z,96.21
2017-02-28T09:08:20.894Z,95.07
2017-02-28T09:09:20.879Z,95.17
2017-02-28T09:10:20.865Z,94.89
2017-02-28T09:11:20.852Z,94.51
2017-02-28T09:12:20.834Z,95.36
2017-02-28T09:13:20.824Z,95.55
2017-02-28T09:14:20.808Z,96.5
2017-02-28T09:15:20.798Z,93.08
2017-02-28T09:16:20.780Z,95.17
2017-02-28T09:17:20.764Z,91.86
2017-02-28T09:18:20.369Z,92.43
2017-02-28T09:19:20.738Z,92.8
2017-02-28T09:20:20.720Z,90.72
2017-02-28T09:21:20.705Z,91.1
2017-02-28T09:22:20.699Z,95.07
2017-02-28T09:23:20.280Z,93.08
2017-02-28T09:24:20.672Z,87.21
2017-02-28T09:25:20.253Z,87.98
2017-02-28T09:26:20.649Z,90.34
2017-02-28T09:27:20.622Z,91.1
2017-02-28T09:28:20.607Z,94.32
2017-02-28T09:29:20.598Z,94.42
2017-02-28T09:30:20.241Z,92.9
2017-02-28T09:31:20.572Z,95.55
2017-02-28T09:32:20.550Z,96.5
2017-02-28T09:33:20.538Z,95.36
2017-02-28T09:34:20.528Z,95.12
2017-02-28T09:35:20.513Z,98.54
2017-02-28T09:36:20.496Z,97.68
2017-02-28T09:37:20.496Z,96.92
2017-02-28T09:38:20.075Z,99.01
2017-02-28T09:39:20.461Z,99.77
2017-02-28T09:40:20.435Z,99.99
2017-02-28T09:41:20.423Z,99.99
2017-02-28T09:42:20.015Z,99.99
2017-02-28T09:43:20.394Z,99.99
2017-02-28T09:44:20.379Z,99.99
2017-02-28T09:45:20.377Z,99.99
2017-02-28T09:46:20.363Z,99.99
2017-02-28T09:47:19.941Z,99.99
2017-02-28T09:48:20.325Z,99.99
2017-02-28T09:49:19.920Z,99.99
2017-02-28T09:50:20.307Z,99.99
2017-02-28T09:51:20.283Z,99.99
2017-02-28T09:52:20.269Z,99.99
2017-02-28T09:53:20.258Z,99.99
2017-02-28T09:54:19.844Z,99.99
2017-02-28T09:55:20.242Z,99.99
2017-02-28T09:56:20.220Z,99.99
2017-02-28T09:57:19.801Z,99.99
2017-02-28T09:58:20.191Z,99.99
2017-02-28T09:59:19.776Z,99.99
2017-02-28T10:00:20.158Z,99.99
2017-02-28T10:01:20.149Z,99.99
2017-02-28T10:02:20.164Z,99.99
2017-02-28T10:03:20.121Z,99.99
2017-02-28T10:04:20.107Z,99.99
2017-02-28T10:05:19.696Z,99.99
2017-02-28T10:06:20.082Z,99.99
2017-02-28T10:07:19.675Z,99.99
2017-02-28T10:08:19.658Z,99.99
2017-02-28T10:09:19.651Z,99.99
2017-02-28T10:10:19.628Z,99.99
2017-02-28T10:11:19.617Z,99.99
2017-02-28T10:12:19.610Z,99.99
2017-02-28T10:13:19.602Z,99.99
2017-02-28T10:14:19.581Z,99.99
2017-02-28T10:15:19.564Z,99.99
2017-02-28T10:16:19.560Z,99.99
2017-02-28T10:17:19.548Z,99.99
2017-02-28T10:18:19.539Z,99.99
2017-02-28T10:19:19.513Z,99.99
2017-02-28T10:20:19.901Z,99.99
2017-02-28T10:21:19.890Z,99.99
2017-02-28T10:22:19.873Z,99.99
2017-02-28T10:23:19.862Z,99.99
2017-02-28T10:24:19.846Z,99.99
2017-02-28T10:25:19.844Z,99.99
2017-02-28T10:26:19.823Z,99.99
2017-02-28T10:27:19.811Z,99.99
2017-02-28T10:28:19.811Z,99.99
2017-02-28T10:29:19.388Z,99.99
2017-02-28T10:30:19.376Z,99.99
2017-02-28T10:31:19.760Z,99.99
2017-02-28T10:32:19.748Z,99.99
2017-02-28T10:33:19.348Z,99.99
2017-02-28T10:34:19.722Z,99.99
2017-02-28T10:35:19.711Z,99.99
2017-02-28T10:36:19.698Z,99.99
2017-02-28T10:37:19.686Z,99.99
2017-02-28T10:38:19.674Z,99.99
2017-02-28T10:39:19.661Z,99.99
2017-02-28T10:40:19.652Z,99.99
2017-02-28T10:41:19.636Z,99.99
2017-02-28T10:42:19.625Z,99.99
2017-02-28T10:43:19.620Z,99.99
2017-02-28T10:44:19.203Z,99.99
2017-02-28T10:45:19.589Z,99.99
2017-02-28T10:46:19.577Z,99.99
2017-02-28T10:47:19.830Z,99.99
2017-02-28T10:48:19.554Z,99.99
2017-02-28T10:49:19.537Z,99.99
2017-02-28T10:50:19.526Z,99.99
2017-02-28T10:51:19.516Z,99.99
2017-02-28T10:52:19.502Z,99.99
2017-02-28T10:53:19.492Z,99.99
2017-02-28T10:54:19.510Z,99.99
2017-02-28T10:55:19.472Z,99.99
2017-02-28T10:56:19.450Z,99.99
2017-02-28T10:57:19.455Z,99.99
2017-02-28T10:58:19.035Z,99.99
2017-02-28T10:59:19.429Z,99.99
2017-02-28T11:00:19.404Z,99.99
2017-02-28T11:01:19.392Z,99.99
2017-02-28T11:02:19.382Z,99.99
2017-02-28T11:03:19.380Z,99.99
2017-02-28T11:04:19.358Z,99.99
2017-02-28T11:05:19.345Z,99.99
2017-02-28T11:06:19.339Z,99.99
2017-02-28T11:07:19.316Z,99.99
2017-02-28T11:08:19.308Z,99.99
2017-02-28T11:09:19.301Z,99.99
2017-02-28T11:10:19.283Z,99.99
2017-02-28T11:11:19.271Z,99.99
2017-02-28T11:12:19.277Z,99.99
2017-02-28T11:13:19.250Z,99.99
2017-02-28T11:14:19.235Z,99.99
2017-02-28T11:15:18.825Z,99.99
2017-02-28T11:16:19.210Z,99.99
2017-02-28T11:17:19.199Z,99.99
2017-02-28T11:18:19.197Z,99.99
2017-02-28T11:19:19.171Z,99.99
2017-02-28T11:20:19.161Z,99.99
2017-02-28T11:21:18.752Z,99.99
2017-02-28T11:22:19.136Z,99.99
2017-02-28T11:23:18.748Z,99.99
2017-02-28T11:24:18.725Z,99.99
2017-02-28T11:25:19.101Z,99.99
2017-02-28T11:26:19.091Z,99.99
2017-02-28T11:27:19.090Z,99.99
2017-02-28T11:28:19.064Z,99.99
2017-02-28T11:29:19.055Z,99.99
2017-02-28T11:30:19.036Z,99.99
2017-02-28T11:31:19.027Z,99.99
2017-02-28T11:32:19.018Z,99.99
2017-02-28T11:33:19.002Z,99.99
2017-02-28T11:34:19.006Z,99.99
2017-02-28T11:35:18.585Z,99.99
2017-02-28T11:36:18.969Z,99.99
2017-02-28T11:37:18.963Z,99.99
2017-02-28T11:38:18.944Z,99.99
2017-02-28T11:39:18.533Z,99.99
2017-02-28T11:40:18.918Z,99.99
2017-02-28T11:41:18.903Z,99.99
2017-02-28T11:42:18.900Z,99.99
2017-02-28T11:43:18.880Z,99.99
2017-02-28T11:44:18.885Z,99.99
2017-02-28T11:45:18.865Z,99.99
2017-02-28T11:46:18.845Z,99.99
2017-02-28T11:47:18.440Z,99.99
2017-02-28T11:48:18.423Z,99.99
2017-02-28T11:49:18.809Z,99.99
2017-02-28T11:50:18.802Z,99.99
2017-02-28T11:51:18.783Z,99.99
2017-02-28T11:52:18.769Z,99.99
2017-02-28T11:53:18.764Z,99.99
2017-02-28T11:54:18.745Z,99.99
2017-02-28T11:55:18.732Z,99.99
2017-02-28T11:56:18.727Z,99.99
2017-02-28T11:57:18.707Z,99.99
2017-02-28T11:58:18.696Z,99.99
2017-02-28T11:59:18.690Z,99.99
2017-02-28T12:00:18.673Z,99.99
2017-02-28T12:01:18.720Z,99.99
2017-02-28T12:02:18.649Z,99.99
2017-02-28T12:03:18.688Z,99.99
2017-02-28T12:04:18.623Z,99.99
2017-02-28T12:05:18.609Z,99.99
2017-02-28T12:06:18.600Z,99.99
2017-02-28T12:07:18.587Z,99.99
2017-02-28T12:08:18.574Z,99.99
2017-02-28T12:09:18.572Z,99.99
2017-02-28T12:10:18.547Z,99.99
2017-02-28T12:11:18.547Z,99.99
2017-02-28T12:12:18.523Z,99.99
2017-02-28T12:13:18.510Z,99.99
2017-02-28T12:14:18.500Z,99.99
2017-02-28T12:15:18.494Z,99.99
2017-02-28T12:16:18.476Z,99.99
2017-02-28T12:17:18.464Z,99.99
2017-02-28T12:18:18.450Z,99.99
2017-02-28T12:19:18.465Z,99.99
2017-02-28T12:20:18.446Z,99.99
2017-02-28T12:21:18.420Z,99.99
2017-02-28T12:22:18.401Z,99.99
2017-02-28T12:23:18.409Z,99.99
2017-02-28T12:24:18.391Z,99.99
2017-02-28T12:25:18.378Z,99.99
2017-02-28T12:26:18.354Z,99.99
2017-02-28T12:27:18.338Z,99.99
2017-02-28T12:28:18.325Z,99.99
2017-02-28T12:29:18.317Z,99.99
2017-02-28T12:30:18.302Z,99.99
2017-02-28T12:31:18.287Z,99.99
2017-02-28T12:32:18.279Z,99.99
2017-02-28T12:33:18.264Z,99.99
2017-02-28T12:34:18.253Z,99.99
2017-02-28T12:35:18.239Z,99.99
2017-02-28T12:36:18.226Z,99.99
2017-02-28T12:37:18.216Z,99.99
2017-02-28T12:38:18.201Z,99.99
2017-02-28T12:39:18.195Z,99.99
2017-02-28T12:40:18.178Z,99.99
2017-02-28T12:41:18.168Z,99.99
2017-02-28T12:42:18.159Z,99.99
2017-02-28T12:43:18.139Z,99.99
2017-02-28T12:44:18.138Z,99.99
2017-02-28T12:45:18.126Z,99.99
2017-02-28T12:46:18.103Z,99.99
2017-02-28T12:47:18.091Z,99.99
2017-02-28T12:48:18.079Z,99.99
2017-02-28T12:49:18.069Z,99.99
2017-02-28T12:50:18.064Z,99.99
2017-02-28T12:51:18.040Z,99.99
2017-02-28T12:52:18.068Z,99.99
2017-02-28T12:53:18.024Z,99.99
2017-02-28T12:54:18.015Z,99.99